スーパー小学生降臨!!

LUXURY FLIGHT

03-6423-7371

羽田本店:東京都大田区羽田5-11-1
営業時間:10:00~20:00
定休日:毎週 月曜日
セントレア店:愛知県常滑市セントレア1-1
営業時間:10:00~20:00 年中無休

lv

スーパー小学生降臨!!

STAFF BLOG

2019/07/01 スーパー小学生降臨!!

おはざっす

ざっすざっす

 

本日の羽田店周辺METARは…

 

RJTT 302300Z 03005KT 8000 -RA FEW004 BKN006 BKN020 23/22 Q1004

NOSIG RMK 1ST004 6ST006 7SC020 A2966

 

気温は低めですが、湿度がハンパないです…

 

蒸し暑いっっっっ

 

さてさて、先日お越しいただいたO君!!

 

キッズキャプテンとしては、恐らく当店で最大級の知識と腕前を持つと思われます。(笑)

 

羽田34R〜プリフライト〜エンジンスタート〜伊丹32L着陸

 

までをフルにしましたが、各種スイッチの位置関係や動かし方をほぼ全て理解していて

 

率先して2マンでのチェックリストを引っ張ってくれました。

 

離陸後、しばらくマニュアルでフライトしてましたが、

 

自動操縦をONにしてみたい、と言われ…

 

私「やっぱり747は操縦桿が重いし疲れちゃったかな…」

 

なんて考えてたら、

 

アフターテイクオフチェックリストが始まりました。(笑)

 

チェックリストが終わったら、またマニュアル操縦に戻る徹底ぶり。(笑)

 

スーパー小学生ハンパないです。

 

img_1981

コックピットに座ってても、なーーーんか貫禄があるというか…

 

これからの成長が楽しみです

 

ちなみに彼、ヒコーキ写真も撮るので見せてもらったのですが、

 

赤く染まる太陽とヒコーキのコントラストとか、構図とかがすごく綺麗でビックリしました。

 

私にもこういう才能が欲しかったなぁ…

 

別枠で紹介したいなと思うくらいですので、ぜひ何かの機会にご紹介させてください!!

 

この度はご来店誠にありがとうございました。

 

 

次回のご来店も心より楽しみに致しております。

 

 

「感謝」

 

中澤

TOP